Lamont, Iowa
Current Conditions -  °F | °C
As of 11:35 PM on Sunday 21 Dec 2014 (Local Time) from KOLZ Reporting Station
Haze Haze  
Wind Chill: 26°   Ceiling: 700
Heat Index: 36°   Visibility: 4mi
Dew Point: 36°   Wind: 15mph
Humidity: 100%   Direction: 150°SSE
Pressure: 29.82"   Gusts: NA
Location:  42.6°N, 91.64°W
Report Text: KOLZ 220535Z AUTO 15013KT 4SM BR OVC007 02/02 A2982 RMK AO2
Loading
Personal Weather Stations






























Interactive Weather Map New forecast layout! Learn more

10-Day Weather Forecast

Advertisements
Track Severe Weather on mobile